sensor_id;sensor_type;location;lat;lon;timestamp;P1;durP1;ratioP1;P2;durP2;ratioP2
38843;SDS011;24596;48.080;8.362;2023-04-09T00:01:33;23.58;;;14.43;;
38843;SDS011;24596;48.080;8.362;2023-04-09T00:03:58;25.45;;;16.02;;
38843;SDS011;24596;48.080;8.362;2023-04-09T00:06:23;29.55;;;18.45;;
38843;SDS011;24596;48.080;8.362;2023-04-09T00:08:48;48.63;;;31.48;;
38843;SDS011;24596;48.080;8.362;2023-04-09T00:11:14;49.85;;;34.40;;
38843;SDS011;24596;48.080;8.362;2023-04-09T00:13:39;55.28;;;36.80;;
38843;SDS011;24596;48.080;8.362;2023-04-09T00:16:05;157.55;;;102.95;;
38843;SDS011;24596;48.080;8.362;2023-04-09T00:18:30;141.95;;;93.65;;
38843;SDS011;24596;48.080;8.362;2023-04-09T00:20:55;309.92;;;193.93;;
38843;SDS011;24596;48.080;8.362;2023-04-09T00:23:20;310.13;;;194.25;;
38843;SDS011;24596;48.080;8.362;2023-04-09T00:25:45;75.90;;;46.38;;
38843;SDS011;24596;48.080;8.362;2023-04-09T00:28:11;60.88;;;39.33;;
38843;SDS011;24596;48.080;8.362;2023-04-09T00:30:36;58.63;;;38.92;;
38843;SDS011;24596;48.080;8.362;2023-04-09T00:33:01;65.47;;;38.00;;
38843;SDS011;24596;48.080;8.362;2023-04-09T00:35:26;64.47;;;42.17;;
38843;SDS011;24596;48.080;8.362;2023-04-09T00:37:52;67.63;;;42.15;;
38843;SDS011;24596;48.080;8.362;2023-04-09T00:40:17;56.60;;;36.83;;
38843;SDS011;24596;48.080;8.362;2023-04-09T00:42:42;46.55;;;28.55;;
38843;SDS011;24596;48.080;8.362;2023-04-09T00:45:08;44.78;;;29.00;;
38843;SDS011;24596;48.080;8.362;2023-04-09T00:47:34;40.38;;;27.52;;
38843;SDS011;24596;48.080;8.362;2023-04-09T00:50:00;37.92;;;25.08;;
38843;SDS011;24596;48.080;8.362;2023-04-09T00:52:25;33.63;;;21.55;;
38843;SDS011;24596;48.080;8.362;2023-04-09T00:54:51;32.25;;;21.55;;
38843;SDS011;24596;48.080;8.362;2023-04-09T00:57:16;30.05;;;19.67;;
38843;SDS011;24596;48.080;8.362;2023-04-09T00:59:45;26.92;;;18.70;;
38843;SDS011;24596;48.080;8.362;2023-04-09T01:02:13;25.77;;;17.52;;
38843;SDS011;24596;48.080;8.362;2023-04-09T01:04:39;23.80;;;15.75;;
38843;SDS011;24596;48.080;8.362;2023-04-09T01:09:34;25.25;;;16.85;;
38843;SDS011;24596;48.080;8.362;2023-04-09T01:12:05;37.55;;;25.77;;
38843;SDS011;24596;48.080;8.362;2023-04-09T01:14:44;40.00;;;26.55;;
38843;SDS011;24596;48.080;8.362;2023-04-09T01:17:13;36.40;;;23.00;;
38843;SDS011;24596;48.080;8.362;2023-04-09T01:22:21;28.60;;;19.35;;
38843;SDS011;24596;48.080;8.362;2023-04-09T01:24:58;28.75;;;17.05;;
38843;SDS011;24596;48.080;8.362;2023-04-09T01:27:25;23.50;;;16.52;;
38843;SDS011;24596;48.080;8.362;2023-04-09T01:29:54;22.95;;;15.27;;
38843;SDS011;24596;48.080;8.362;2023-04-09T01:32:20;21.77;;;14.32;;
38843;SDS011;24596;48.080;8.362;2023-04-09T01:34:46;25.85;;;15.15;;
38843;SDS011;24596;48.080;8.362;2023-04-09T01:37:12;22.58;;;15.10;;
38843;SDS011;24596;48.080;8.362;2023-04-09T01:39:38;23.38;;;16.25;;
38843;SDS011;24596;48.080;8.362;2023-04-09T01:42:03;23.50;;;15.02;;
38843;SDS011;24596;48.080;8.362;2023-04-09T01:44:29;21.45;;;14.20;;
38843;SDS011;24596;48.080;8.362;2023-04-09T01:46:55;18.98;;;13.05;;
38843;SDS011;24596;48.080;8.362;2023-04-09T01:49:22;19.55;;;12.30;;
38843;SDS011;24596;48.080;8.362;2023-04-09T01:51:47;20.90;;;13.80;;
38843;SDS011;24596;48.080;8.362;2023-04-09T01:54:12;23.35;;;14.93;;
38843;SDS011;24596;48.080;8.362;2023-04-09T01:59:06;22.63;;;15.57;;
38843;SDS011;24596;48.080;8.362;2023-04-09T02:01:32;24.33;;;14.77;;
38843;SDS011;24596;48.080;8.362;2023-04-09T02:04:01;24.95;;;15.35;;
38843;SDS011;24596;48.080;8.362;2023-04-09T02:06:30;28.02;;;17.02;;
38843;SDS011;24596;48.080;8.362;2023-04-09T02:08:59;22.60;;;14.23;;
38843;SDS011;24596;48.080;8.362;2023-04-09T02:11:24;22.17;;;14.65;;
38843;SDS011;24596;48.080;8.362;2023-04-09T02:13:50;21.23;;;14.30;;
38843;SDS011;24596;48.080;8.362;2023-04-09T02:16:17;21.25;;;13.85;;
38843;SDS011;24596;48.080;8.362;2023-04-09T02:18:43;20.60;;;13.88;;
38843;SDS011;24596;48.080;8.362;2023-04-09T02:21:08;24.70;;;14.43;;
38843;SDS011;24596;48.080;8.362;2023-04-09T02:23:34;18.40;;;12.75;;
38843;SDS011;24596;48.080;8.362;2023-04-09T02:26:00;17.42;;;11.77;;
38843;SDS011;24596;48.080;8.362;2023-04-09T02:28:25;22.45;;;14.02;;
38843;SDS011;24596;48.080;8.362;2023-04-09T02:30:50;24.52;;;12.48;;
38843;SDS011;24596;48.080;8.362;2023-04-09T02:33:15;161.38;;;16.35;;
38843;SDS011;24596;48.080;8.362;2023-04-09T02:35:41;18.73;;;12.18;;
38843;SDS011;24596;48.080;8.362;2023-04-09T02:38:06;17.63;;;12.32;;
38843;SDS011;24596;48.080;8.362;2023-04-09T02:40:37;19.97;;;12.73;;
38843;SDS011;24596;48.080;8.362;2023-04-09T02:43:02;17.60;;;12.10;;
38843;SDS011;24596;48.080;8.362;2023-04-09T02:45:27;20.05;;;12.93;;
38843;SDS011;24596;48.080;8.362;2023-04-09T02:47:53;21.13;;;13.02;;
38843;SDS011;24596;48.080;8.362;2023-04-09T02:50:18;22.55;;;13.75;;
38843;SDS011;24596;48.080;8.362;2023-04-09T02:52:44;21.65;;;14.32;;
38843;SDS011;24596;48.080;8.362;2023-04-09T02:55:09;28.13;;;17.70;;
38843;SDS011;24596;48.080;8.362;2023-04-09T02:57:35;28.38;;;16.15;;
38843;SDS011;24596;48.080;8.362;2023-04-09T03:00:01;24.27;;;15.70;;
38843;SDS011;24596;48.080;8.362;2023-04-09T03:02:26;25.90;;;16.10;;
38843;SDS011;24596;48.080;8.362;2023-04-09T03:04:51;25.05;;;16.20;;
38843;SDS011;24596;48.080;8.362;2023-04-09T03:07:17;279.38;;;23.00;;
38843;SDS011;24596;48.080;8.362;2023-04-09T03:09:42;25.15;;;15.52;;
38843;SDS011;24596;48.080;8.362;2023-04-09T03:12:07;25.23;;;16.45;;
38843;SDS011;24596;48.080;8.362;2023-04-09T03:14:32;31.67;;;15.43;;
38843;SDS011;24596;48.080;8.362;2023-04-09T03:16:57;27.50;;;15.55;;
38843;SDS011;24596;48.080;8.362;2023-04-09T03:19:23;30.92;;;15.70;;
38843;SDS011;24596;48.080;8.362;2023-04-09T03:21:48;35.13;;;17.33;;
38843;SDS011;24596;48.080;8.362;2023-04-09T03:24:14;55.53;;;18.88;;
38843;SDS011;24596;48.080;8.362;2023-04-09T03:26:40;28.80;;;16.67;;
38843;SDS011;24596;48.080;8.362;2023-04-09T03:29:05;29.00;;;17.85;;
38843;SDS011;24596;48.080;8.362;2023-04-09T03:31:31;29.55;;;17.42;;
38843;SDS011;24596;48.080;8.362;2023-04-09T03:33:56;30.05;;;17.50;;
38843;SDS011;24596;48.080;8.362;2023-04-09T03:36:22;26.95;;;16.38;;
38843;SDS011;24596;48.080;8.362;2023-04-09T03:38:47;32.40;;;17.65;;
38843;SDS011;24596;48.080;8.362;2023-04-09T03:41:12;31.48;;;17.25;;
38843;SDS011;24596;48.080;8.362;2023-04-09T03:43:37;100.25;;;19.38;;
38843;SDS011;24596;48.080;8.362;2023-04-09T03:46:12;164.65;;;22.88;;
38843;SDS011;24596;48.080;8.362;2023-04-09T03:48:38;65.35;;;20.45;;
38843;SDS011;24596;48.080;8.362;2023-04-09T03:51:03;79.63;;;23.38;;
38843;SDS011;24596;48.080;8.362;2023-04-09T03:53:28;72.50;;;21.88;;
38843;SDS011;24596;48.080;8.362;2023-04-09T03:55:53;227.75;;;28.00;;
38843;SDS011;24596;48.080;8.362;2023-04-09T03:58:19;157.32;;;26.85;;
38843;SDS011;24596;48.080;8.362;2023-04-09T04:00:44;65.80;;;21.83;;
38843;SDS011;24596;48.080;8.362;2023-04-09T04:03:10;39.10;;;20.70;;
38843;SDS011;24596;48.080;8.362;2023-04-09T04:05:35;150.35;;;23.20;;
38843;SDS011;24596;48.080;8.362;2023-04-09T04:08:01;56.20;;;21.17;;
38843;SDS011;24596;48.080;8.362;2023-04-09T04:10:26;37.03;;;20.10;;
38843;SDS011;24596;48.080;8.362;2023-04-09T04:12:51;36.80;;;20.13;;
38843;SDS011;24596;48.080;8.362;2023-04-09T04:15:16;58.38;;;20.10;;
38843;SDS011;24596;48.080;8.362;2023-04-09T04:17:43;55.65;;;19.67;;
38843;SDS011;24596;48.080;8.362;2023-04-09T04:20:08;361.50;;;29.17;;
38843;SDS011;24596;48.080;8.362;2023-04-09T04:22:34;63.65;;;20.90;;
38843;SDS011;24596;48.080;8.362;2023-04-09T04:24:59;65.45;;;20.02;;
38843;SDS011;24596;48.080;8.362;2023-04-09T04:27:24;207.05;;;28.75;;
38843;SDS011;24596;48.080;8.362;2023-04-09T04:29:50;34.22;;;19.25;;
38843;SDS011;24596;48.080;8.362;2023-04-09T04:32:15;48.15;;;19.90;;
38843;SDS011;24596;48.080;8.362;2023-04-09T04:34:40;32.22;;;18.98;;
38843;SDS011;24596;48.080;8.362;2023-04-09T04:37:05;37.35;;;20.05;;
38843;SDS011;24596;48.080;8.362;2023-04-09T04:39:30;56.97;;;20.38;;
38843;SDS011;24596;48.080;8.362;2023-04-09T04:41:56;41.33;;;19.65;;
38843;SDS011;24596;48.080;8.362;2023-04-09T04:44:21;32.35;;;19.88;;
38843;SDS011;24596;48.080;8.362;2023-04-09T04:46:46;33.13;;;19.23;;
38843;SDS011;24596;48.080;8.362;2023-04-09T04:49:11;34.92;;;19.95;;
38843;SDS011;24596;48.080;8.362;2023-04-09T04:51:37;30.55;;;19.30;;
38843;SDS011;24596;48.080;8.362;2023-04-09T04:54:02;30.02;;;17.95;;
38843;SDS011;24596;48.080;8.362;2023-04-09T04:56:27;31.80;;;19.08;;
38843;SDS011;24596;48.080;8.362;2023-04-09T04:58:52;35.97;;;19.88;;
38843;SDS011;24596;48.080;8.362;2023-04-09T05:01:17;35.30;;;19.02;;
38843;SDS011;24596;48.080;8.362;2023-04-09T05:03:43;32.85;;;19.00;;
38843;SDS011;24596;48.080;8.362;2023-04-09T05:06:08;34.08;;;19.33;;
38843;SDS011;24596;48.080;8.362;2023-04-09T05:08:33;29.67;;;18.45;;
38843;SDS011;24596;48.080;8.362;2023-04-09T05:10:58;31.63;;;18.67;;
38843;SDS011;24596;48.080;8.362;2023-04-09T05:13:23;29.75;;;17.45;;
38843;SDS011;24596;48.080;8.362;2023-04-09T05:15:49;31.70;;;18.30;;
38843;SDS011;24596;48.080;8.362;2023-04-09T05:18:14;28.95;;;17.23;;
38843;SDS011;24596;48.080;8.362;2023-04-09T05:20:40;29.98;;;18.38;;
38843;SDS011;24596;48.080;8.362;2023-04-09T05:23:05;28.70;;;17.23;;
38843;SDS011;24596;48.080;8.362;2023-04-09T05:25:30;27.80;;;17.25;;
38843;SDS011;24596;48.080;8.362;2023-04-09T05:27:56;28.00;;;16.45;;
38843;SDS011;24596;48.080;8.362;2023-04-09T05:30:21;30.42;;;17.70;;
38843;SDS011;24596;48.080;8.362;2023-04-09T05:32:46;29.40;;;18.13;;
38843;SDS011;24596;48.080;8.362;2023-04-09T05:35:11;33.63;;;19.55;;
38843;SDS011;24596;48.080;8.362;2023-04-09T05:37:37;28.35;;;17.42;;
38843;SDS011;24596;48.080;8.362;2023-04-09T05:40:02;30.83;;;17.20;;
38843;SDS011;24596;48.080;8.362;2023-04-09T05:42:27;30.45;;;18.48;;
38843;SDS011;24596;48.080;8.362;2023-04-09T05:44:52;30.55;;;18.23;;
38843;SDS011;24596;48.080;8.362;2023-04-09T05:47:18;33.20;;;19.25;;
38843;SDS011;24596;48.080;8.362;2023-04-09T05:49:43;27.10;;;17.27;;
38843;SDS011;24596;48.080;8.362;2023-04-09T05:52:08;29.30;;;18.33;;
38843;SDS011;24596;48.080;8.362;2023-04-09T05:54:33;28.85;;;17.52;;
38843;SDS011;24596;48.080;8.362;2023-04-09T05:56:59;33.33;;;19.25;;
38843;SDS011;24596;48.080;8.362;2023-04-09T05:59:24;28.40;;;16.60;;
38843;SDS011;24596;48.080;8.362;2023-04-09T06:01:49;30.38;;;18.27;;
38843;SDS011;24596;48.080;8.362;2023-04-09T06:04:15;29.48;;;17.40;;
38843;SDS011;24596;48.080;8.362;2023-04-09T06:06:40;28.60;;;18.17;;
38843;SDS011;24596;48.080;8.362;2023-04-09T06:09:05;29.23;;;17.73;;
38843;SDS011;24596;48.080;8.362;2023-04-09T06:11:31;28.73;;;17.38;;
38843;SDS011;24596;48.080;8.362;2023-04-09T06:13:56;29.15;;;17.70;;
38843;SDS011;24596;48.080;8.362;2023-04-09T06:16:21;27.75;;;17.05;;
38843;SDS011;24596;48.080;8.362;2023-04-09T06:18:47;27.95;;;16.45;;
38843;SDS011;24596;48.080;8.362;2023-04-09T06:21:14;25.73;;;15.65;;
38843;SDS011;24596;48.080;8.362;2023-04-09T06:23:39;27.15;;;16.75;;
38843;SDS011;24596;48.080;8.362;2023-04-09T06:26:05;26.88;;;17.05;;
38843;SDS011;24596;48.080;8.362;2023-04-09T06:28:30;26.27;;;16.23;;
38843;SDS011;24596;48.080;8.362;2023-04-09T06:30:56;26.48;;;15.82;;
38843;SDS011;24596;48.080;8.362;2023-04-09T06:33:21;25.77;;;15.02;;
38843;SDS011;24596;48.080;8.362;2023-04-09T06:35:46;25.92;;;15.88;;
38843;SDS011;24596;48.080;8.362;2023-04-09T06:38:12;28.17;;;16.38;;
38843;SDS011;24596;48.080;8.362;2023-04-09T06:40:37;24.92;;;15.30;;
38843;SDS011;24596;48.080;8.362;2023-04-09T06:43:03;26.70;;;16.23;;
38843;SDS011;24596;48.080;8.362;2023-04-09T06:45:29;26.00;;;16.10;;
38843;SDS011;24596;48.080;8.362;2023-04-09T06:47:55;28.30;;;15.70;;
38843;SDS011;24596;48.080;8.362;2023-04-09T06:50:20;29.08;;;15.52;;
38843;SDS011;24596;48.080;8.362;2023-04-09T06:52:45;27.77;;;16.52;;
38843;SDS011;24596;48.080;8.362;2023-04-09T06:55:10;26.65;;;16.77;;
38843;SDS011;24596;48.080;8.362;2023-04-09T06:57:35;25.45;;;16.20;;
38843;SDS011;24596;48.080;8.362;2023-04-09T07:00:02;24.60;;;14.93;;
38843;SDS011;24596;48.080;8.362;2023-04-09T07:02:27;22.73;;;14.52;;
38843;SDS011;24596;48.080;8.362;2023-04-09T07:04:53;24.38;;;14.48;;
38843;SDS011;24596;48.080;8.362;2023-04-09T07:07:18;24.25;;;14.35;;
38843;SDS011;24596;48.080;8.362;2023-04-09T07:09:44;23.35;;;13.85;;
38843;SDS011;24596;48.080;8.362;2023-04-09T07:12:10;23.33;;;13.52;;
38843;SDS011;24596;48.080;8.362;2023-04-09T07:14:35;23.55;;;12.75;;
38843;SDS011;24596;48.080;8.362;2023-04-09T07:17:00;23.63;;;14.05;;
38843;SDS011;24596;48.080;8.362;2023-04-09T07:19:25;22.60;;;14.40;;
38843;SDS011;24596;48.080;8.362;2023-04-09T07:21:51;23.90;;;14.60;;
38843;SDS011;24596;48.080;8.362;2023-04-09T07:24:16;25.42;;;14.90;;
38843;SDS011;24596;48.080;8.362;2023-04-09T07:26:41;20.55;;;11.27;;
38843;SDS011;24596;48.080;8.362;2023-04-09T07:29:06;22.15;;;13.77;;
38843;SDS011;24596;48.080;8.362;2023-04-09T07:31:32;20.30;;;12.55;;
38843;SDS011;24596;48.080;8.362;2023-04-09T07:33:57;24.75;;;13.88;;
38843;SDS011;24596;48.080;8.362;2023-04-09T07:36:22;22.45;;;13.38;;
38843;SDS011;24596;48.080;8.362;2023-04-09T07:38:47;22.20;;;14.20;;
38843;SDS011;24596;48.080;8.362;2023-04-09T07:41:13;20.70;;;12.70;;
38843;SDS011;24596;48.080;8.362;2023-04-09T07:43:38;21.38;;;13.05;;
38843;SDS011;24596;48.080;8.362;2023-04-09T07:46:04;20.35;;;12.48;;
38843;SDS011;24596;48.080;8.362;2023-04-09T07:48:29;24.05;;;13.40;;
38843;SDS011;24596;48.080;8.362;2023-04-09T07:50:54;18.42;;;11.30;;
38843;SDS011;24596;48.080;8.362;2023-04-09T07:53:20;18.75;;;11.15;;
38843;SDS011;24596;48.080;8.362;2023-04-09T07:55:45;15.88;;;10.55;;
38843;SDS011;24596;48.080;8.362;2023-04-09T07:58:10;16.23;;;10.48;;
38843;SDS011;24596;48.080;8.362;2023-04-09T08:00:35;16.70;;;10.98;;
38843;SDS011;24596;48.080;8.362;2023-04-09T08:03:01;16.30;;;10.63;;
38843;SDS011;24596;48.080;8.362;2023-04-09T08:05:27;17.85;;;10.82;;
38843;SDS011;24596;48.080;8.362;2023-04-09T08:07:53;17.02;;;10.85;;
38843;SDS011;24596;48.080;8.362;2023-04-09T08:10:18;15.45;;;8.57;;
38843;SDS011;24596;48.080;8.362;2023-04-09T08:12:43;16.63;;;9.70;;
38843;SDS011;24596;48.080;8.362;2023-04-09T08:15:09;14.55;;;9.55;;
38843;SDS011;24596;48.080;8.362;2023-04-09T08:17:34;15.70;;;10.07;;
38843;SDS011;24596;48.080;8.362;2023-04-09T08:20:03;15.63;;;9.50;;
38843;SDS011;24596;48.080;8.362;2023-04-09T08:22:28;14.20;;;8.43;;
38843;SDS011;24596;48.080;8.362;2023-04-09T08:24:54;15.65;;;9.93;;
38843;SDS011;24596;48.080;8.362;2023-04-09T08:27:20;16.65;;;9.40;;
38843;SDS011;24596;48.080;8.362;2023-04-09T08:29:46;16.30;;;9.35;;
38843;SDS011;24596;48.080;8.362;2023-04-09T08:32:11;15.40;;;9.70;;
38843;SDS011;24596;48.080;8.362;2023-04-09T08:34:36;16.05;;;10.43;;
38843;SDS011;24596;48.080;8.362;2023-04-09T08:37:01;13.25;;;8.25;;
38843;SDS011;24596;48.080;8.362;2023-04-09T08:39:27;13.70;;;8.90;;
38843;SDS011;24596;48.080;8.362;2023-04-09T08:41:52;11.40;;;6.72;;
38843;SDS011;24596;48.080;8.362;2023-04-09T08:44:17;13.82;;;8.27;;
38843;SDS011;24596;48.080;8.362;2023-04-09T08:46:43;14.30;;;8.88;;
38843;SDS011;24596;48.080;8.362;2023-04-09T08:49:08;13.70;;;8.48;;
38843;SDS011;24596;48.080;8.362;2023-04-09T08:51:34;13.95;;;8.52;;
38843;SDS011;24596;48.080;8.362;2023-04-09T08:54:00;12.65;;;8.27;;
38843;SDS011;24596;48.080;8.362;2023-04-09T08:56:26;14.98;;;8.75;;
38843;SDS011;24596;48.080;8.362;2023-04-09T08:58:51;12.77;;;8.23;;
38843;SDS011;24596;48.080;8.362;2023-04-09T09:01:29;11.95;;;8.00;;
38843;SDS011;24596;48.080;8.362;2023-04-09T09:06:21;14.32;;;7.80;;
38843;SDS011;24596;48.080;8.362;2023-04-09T09:08:51;13.27;;;8.65;;
38843;SDS011;24596;48.080;8.362;2023-04-09T09:11:26;13.18;;;8.10;;
38843;SDS011;24596;48.080;8.362;2023-04-09T09:13:59;13.32;;;8.88;;
38843;SDS011;24596;48.080;8.362;2023-04-09T09:16:24;13.73;;;9.10;;
38843;SDS011;24596;48.080;8.362;2023-04-09T09:18:49;13.88;;;8.45;;
38843;SDS011;24596;48.080;8.362;2023-04-09T09:21:15;15.15;;;9.18;;
38843;SDS011;24596;48.080;8.362;2023-04-09T09:23:41;13.93;;;8.55;;
38843;SDS011;24596;48.080;8.362;2023-04-09T09:26:28;12.73;;;8.27;;
38843;SDS011;24596;48.080;8.362;2023-04-09T09:28:54;12.65;;;7.90;;
38843;SDS011;24596;48.080;8.362;2023-04-09T09:31:19;13.25;;;7.80;;
38843;SDS011;24596;48.080;8.362;2023-04-09T09:33:45;13.20;;;8.02;;
38843;SDS011;24596;48.080;8.362;2023-04-09T09:36:11;13.80;;;8.48;;
38843;SDS011;24596;48.080;8.362;2023-04-09T09:38:58;12.70;;;7.88;;
38843;SDS011;24596;48.080;8.362;2023-04-09T09:41:22;11.80;;;8.20;;
38843;SDS011;24596;48.080;8.362;2023-04-09T09:43:48;11.95;;;7.25;;
38843;SDS011;24596;48.080;8.362;2023-04-09T09:46:14;12.45;;;7.13;;
38843;SDS011;24596;48.080;8.362;2023-04-09T09:48:39;11.77;;;7.70;;
38843;SDS011;24596;48.080;8.362;2023-04-09T09:51:08;11.77;;;7.30;;
38843;SDS011;24596;48.080;8.362;2023-04-09T09:53:35;11.40;;;7.53;;
38843;SDS011;24596;48.080;8.362;2023-04-09T09:56:00;12.02;;;7.22;;
38843;SDS011;24596;48.080;8.362;2023-04-09T09:58:47;10.88;;;6.90;;
38843;SDS011;24596;48.080;8.362;2023-04-09T10:01:12;10.90;;;7.53;;
38843;SDS011;24596;48.080;8.362;2023-04-09T10:03:38;10.38;;;6.30;;
38843;SDS011;24596;48.080;8.362;2023-04-09T10:06:04;9.23;;;5.57;;
38843;SDS011;24596;48.080;8.362;2023-04-09T10:08:29;10.05;;;5.32;;
38843;SDS011;24596;48.080;8.362;2023-04-09T10:10:57;10.60;;;5.85;;
38843;SDS011;24596;48.080;8.362;2023-04-09T10:13:30;11.25;;;5.82;;
38843;SDS011;24596;48.080;8.362;2023-04-09T10:15:56;10.68;;;6.80;;
38843;SDS011;24596;48.080;8.362;2023-04-09T10:18:22;9.90;;;6.25;;
38843;SDS011;24596;48.080;8.362;2023-04-09T10:20:57;10.55;;;6.28;;
38843;SDS011;24596;48.080;8.362;2023-04-09T10:23:26;9.18;;;5.13;;
38843;SDS011;24596;48.080;8.362;2023-04-09T10:25:55;8.23;;;5.03;;
38843;SDS011;24596;48.080;8.362;2023-04-09T10:28:20;8.90;;;5.72;;
38843;SDS011;24596;48.080;8.362;2023-04-09T10:30:47;8.60;;;5.35;;
38843;SDS011;24596;48.080;8.362;2023-04-09T10:35:37;11.13;;;5.38;;
38843;SDS011;24596;48.080;8.362;2023-04-09T10:38:05;9.07;;;5.40;;
38843;SDS011;24596;48.080;8.362;2023-04-09T10:40:31;8.75;;;5.15;;
38843;SDS011;24596;48.080;8.362;2023-04-09T10:42:56;8.00;;;5.13;;
38843;SDS011;24596;48.080;8.362;2023-04-09T10:45:22;7.80;;;4.82;;
38843;SDS011;24596;48.080;8.362;2023-04-09T10:47:48;8.23;;;5.05;;
38843;SDS011;24596;48.080;8.362;2023-04-09T10:50:20;7.82;;;4.53;;
38843;SDS011;24596;48.080;8.362;2023-04-09T10:52:51;7.25;;;4.18;;
38843;SDS011;24596;48.080;8.362;2023-04-09T10:55:31;8.13;;;3.90;;
38843;SDS011;24596;48.080;8.362;2023-04-09T10:57:57;7.72;;;4.75;;
38843;SDS011;24596;48.080;8.362;2023-04-09T11:00:22;9.27;;;4.32;;
38843;SDS011;24596;48.080;8.362;2023-04-09T11:02:53;8.18;;;4.72;;
38843;SDS011;24596;48.080;8.362;2023-04-09T11:10:43;6.95;;;3.60;;
38843;SDS011;24596;48.080;8.362;2023-04-09T11:13:12;7.97;;;4.47;;
38843;SDS011;24596;48.080;8.362;2023-04-09T11:15:38;8.60;;;5.05;;
38843;SDS011;24596;48.080;8.362;2023-04-09T11:18:03;8.80;;;4.72;;
38843;SDS011;24596;48.080;8.362;2023-04-09T11:20:31;7.95;;;4.18;;
38843;SDS011;24596;48.080;8.362;2023-04-09T11:22:57;9.00;;;5.28;;
38843;SDS011;24596;48.080;8.362;2023-04-09T11:25:26;8.18;;;5.05;;
38843;SDS011;24596;48.080;8.362;2023-04-09T11:27:52;8.63;;;4.93;;
38843;SDS011;24596;48.080;8.362;2023-04-09T11:30:17;8.55;;;5.35;;
38843;SDS011;24596;48.080;8.362;2023-04-09T11:32:43;7.95;;;4.82;;
38843;SDS011;24596;48.080;8.362;2023-04-09T11:35:12;8.55;;;4.63;;
38843;SDS011;24596;48.080;8.362;2023-04-09T11:37:38;8.50;;;5.15;;
38843;SDS011;24596;48.080;8.362;2023-04-09T11:40:03;8.95;;;5.30;;
38843;SDS011;24596;48.080;8.362;2023-04-09T11:42:32;8.38;;;5.15;;
38843;SDS011;24596;48.080;8.362;2023-04-09T11:44:57;8.93;;;5.05;;
38843;SDS011;24596;48.080;8.362;2023-04-09T11:47:23;8.40;;;5.15;;
38843;SDS011;24596;48.080;8.362;2023-04-09T11:49:48;8.45;;;4.80;;
38843;SDS011;24596;48.080;8.362;2023-04-09T11:52:14;8.35;;;4.20;;
38843;SDS011;24596;48.080;8.362;2023-04-09T11:54:40;8.43;;;5.15;;
38843;SDS011;24596;48.080;8.362;2023-04-09T11:57:06;7.47;;;4.55;;
38843;SDS011;24596;48.080;8.362;2023-04-09T11:59:31;9.48;;;5.38;;
38843;SDS011;24596;48.080;8.362;2023-04-09T12:01:57;8.18;;;5.28;;
38843;SDS011;24596;48.080;8.362;2023-04-09T12:04:22;7.80;;;5.03;;
38843;SDS011;24596;48.080;8.362;2023-04-09T12:06:47;8.07;;;4.55;;
38843;SDS011;24596;48.080;8.362;2023-04-09T12:09:13;9.43;;;4.35;;
38843;SDS011;24596;48.080;8.362;2023-04-09T12:11:41;7.95;;;5.28;;
38843;SDS011;24596;48.080;8.362;2023-04-09T12:14:11;8.50;;;5.05;;
38843;SDS011;24596;48.080;8.362;2023-04-09T12:16:36;10.60;;;5.82;;
38843;SDS011;24596;48.080;8.362;2023-04-09T12:21:43;8.98;;;5.38;;
38843;SDS011;24596;48.080;8.362;2023-04-09T12:26:36;8.88;;;4.93;;
38843;SDS011;24596;48.080;8.362;2023-04-09T12:29:02;9.15;;;4.93;;
38843;SDS011;24596;48.080;8.362;2023-04-09T12:31:27;8.98;;;5.25;;
38843;SDS011;24596;48.080;8.362;2023-04-09T12:33:52;9.85;;;5.68;;
38843;SDS011;24596;48.080;8.362;2023-04-09T12:36:17;9.35;;;5.50;;
38843;SDS011;24596;48.080;8.362;2023-04-09T12:38:42;9.63;;;5.05;;
38843;SDS011;24596;48.080;8.362;2023-04-09T12:41:08;9.30;;;4.78;;
38843;SDS011;24596;48.080;8.362;2023-04-09T12:43:34;9.60;;;5.82;;
38843;SDS011;24596;48.080;8.362;2023-04-09T12:46:00;8.77;;;4.72;;
38843;SDS011;24596;48.080;8.362;2023-04-09T12:48:25;8.50;;;5.65;;
38843;SDS011;24596;48.080;8.362;2023-04-09T12:50:50;9.30;;;5.32;;
38843;SDS011;24596;48.080;8.362;2023-04-09T12:53:16;9.25;;;5.45;;
38843;SDS011;24596;48.080;8.362;2023-04-09T12:55:41;9.35;;;5.22;;
38843;SDS011;24596;48.080;8.362;2023-04-09T12:58:06;8.55;;;5.45;;
38843;SDS011;24596;48.080;8.362;2023-04-09T13:00:31;8.65;;;5.30;;
38843;SDS011;24596;48.080;8.362;2023-04-09T13:02:57;8.75;;;5.32;;
38843;SDS011;24596;48.080;8.362;2023-04-09T13:05:22;8.15;;;4.90;;
38843;SDS011;24596;48.080;8.362;2023-04-09T13:07:47;8.75;;;5.25;;
38843;SDS011;24596;48.080;8.362;2023-04-09T13:10:13;8.93;;;4.65;;
38843;SDS011;24596;48.080;8.362;2023-04-09T13:12:38;8.02;;;4.50;;
38843;SDS011;24596;48.080;8.362;2023-04-09T13:15:03;6.82;;;3.97;;
38843;SDS011;24596;48.080;8.362;2023-04-09T13:17:28;7.85;;;4.20;;
38843;SDS011;24596;48.080;8.362;2023-04-09T13:19:54;7.93;;;4.57;;
38843;SDS011;24596;48.080;8.362;2023-04-09T13:22:19;7.50;;;4.45;;
38843;SDS011;24596;48.080;8.362;2023-04-09T13:24:44;8.68;;;4.95;;
38843;SDS011;24596;48.080;8.362;2023-04-09T13:27:10;8.50;;;4.75;;
38843;SDS011;24596;48.080;8.362;2023-04-09T13:29:35;8.48;;;4.50;;
38843;SDS011;24596;48.080;8.362;2023-04-09T13:32:00;8.35;;;4.65;;
38843;SDS011;24596;48.080;8.362;2023-04-09T13:34:30;8.35;;;4.72;;
38843;SDS011;24596;48.080;8.362;2023-04-09T13:36:56;7.68;;;4.45;;
38843;SDS011;24596;48.080;8.362;2023-04-09T13:39:21;6.80;;;3.90;;
38843;SDS011;24596;48.080;8.362;2023-04-09T13:41:46;8.70;;;4.80;;
38843;SDS011;24596;48.080;8.362;2023-04-09T13:44:11;8.27;;;4.60;;
38843;SDS011;24596;48.080;8.362;2023-04-09T13:46:37;8.23;;;4.30;;
38843;SDS011;24596;48.080;8.362;2023-04-09T13:49:02;9.52;;;4.40;;
38843;SDS011;24596;48.080;8.362;2023-04-09T13:51:27;7.90;;;4.35;;
38843;SDS011;24596;48.080;8.362;2023-04-09T13:53:53;7.47;;;3.92;;
38843;SDS011;24596;48.080;8.362;2023-04-09T13:56:19;8.55;;;4.82;;
38843;SDS011;24596;48.080;8.362;2023-04-09T13:58:44;7.70;;;4.75;;
38843;SDS011;24596;48.080;8.362;2023-04-09T14:01:10;7.78;;;4.57;;
38843;SDS011;24596;48.080;8.362;2023-04-09T14:03:35;8.15;;;4.45;;
38843;SDS011;24596;48.080;8.362;2023-04-09T14:06:04;8.68;;;4.82;;
38843;SDS011;24596;48.080;8.362;2023-04-09T14:08:29;8.90;;;4.78;;
38843;SDS011;24596;48.080;8.362;2023-04-09T14:10:54;9.43;;;4.80;;
38843;SDS011;24596;48.080;8.362;2023-04-09T14:13:20;7.65;;;4.10;;
38843;SDS011;24596;48.080;8.362;2023-04-09T14:15:45;8.50;;;5.38;;
38843;SDS011;24596;48.080;8.362;2023-04-09T14:18:11;7.25;;;4.40;;
38843;SDS011;24596;48.080;8.362;2023-04-09T14:20:36;9.10;;;4.75;;
38843;SDS011;24596;48.080;8.362;2023-04-09T14:23:02;9.10;;;4.90;;
38843;SDS011;24596;48.080;8.362;2023-04-09T14:25:27;8.75;;;5.15;;
38843;SDS011;24596;48.080;8.362;2023-04-09T14:27:52;7.23;;;4.00;;
38843;SDS011;24596;48.080;8.362;2023-04-09T14:30:18;7.70;;;4.43;;
38843;SDS011;24596;48.080;8.362;2023-04-09T14:32:43;7.38;;;4.60;;
38843;SDS011;24596;48.080;8.362;2023-04-09T14:35:08;8.10;;;4.18;;
38843;SDS011;24596;48.080;8.362;2023-04-09T14:37:33;9.20;;;4.55;;
38843;SDS011;24596;48.080;8.362;2023-04-09T14:39:59;9.68;;;4.93;;
38843;SDS011;24596;48.080;8.362;2023-04-09T14:42:24;9.52;;;4.53;;
38843;SDS011;24596;48.080;8.362;2023-04-09T14:44:50;8.02;;;4.47;;
38843;SDS011;24596;48.080;8.362;2023-04-09T14:47:15;8.95;;;4.13;;